sensor_id;sensor_type;location;lat;lon;timestamp;P1;durP1;ratioP1;P2;durP2;ratioP2
19406;SDS011;9839;53.364;-1.204;2024-03-08T00:02:13;22.57;;;10.00;;
19406;SDS011;9839;53.364;-1.204;2024-03-08T00:04:39;26.50;;;10.30;;
19406;SDS011;9839;53.364;-1.204;2024-03-08T00:07:04;25.83;;;10.63;;
19406;SDS011;9839;53.364;-1.204;2024-03-08T00:09:30;25.97;;;12.07;;
19406;SDS011;9839;53.364;-1.204;2024-03-08T00:11:56;31.40;;;12.60;;
19406;SDS011;9839;53.364;-1.204;2024-03-08T00:14:21;29.23;;;11.13;;
19406;SDS011;9839;53.364;-1.204;2024-03-08T00:16:47;31.27;;;11.37;;
19406;SDS011;9839;53.364;-1.204;2024-03-08T00:19:12;31.83;;;12.70;;
19406;SDS011;9839;53.364;-1.204;2024-03-08T00:21:37;29.27;;;11.90;;
19406;SDS011;9839;53.364;-1.204;2024-03-08T00:24:03;26.23;;;12.03;;
19406;SDS011;9839;53.364;-1.204;2024-03-08T00:26:28;30.97;;;12.37;;
19406;SDS011;9839;53.364;-1.204;2024-03-08T00:28:54;31.73;;;12.97;;
19406;SDS011;9839;53.364;-1.204;2024-03-08T00:31:20;33.40;;;12.90;;
19406;SDS011;9839;53.364;-1.204;2024-03-08T00:33:45;31.77;;;13.47;;
19406;SDS011;9839;53.364;-1.204;2024-03-08T00:36:11;37.80;;;13.37;;
19406;SDS011;9839;53.364;-1.204;2024-03-08T00:38:36;33.57;;;13.27;;
19406;SDS011;9839;53.364;-1.204;2024-03-08T00:41:01;32.03;;;13.90;;
19406;SDS011;9839;53.364;-1.204;2024-03-08T00:43:27;37.67;;;13.47;;
19406;SDS011;9839;53.364;-1.204;2024-03-08T00:45:52;40.83;;;15.43;;
19406;SDS011;9839;53.364;-1.204;2024-03-08T00:48:18;29.87;;;14.27;;
19406;SDS011;9839;53.364;-1.204;2024-03-08T00:50:43;34.87;;;14.67;;
19406;SDS011;9839;53.364;-1.204;2024-03-08T00:53:10;38.83;;;14.60;;
19406;SDS011;9839;53.364;-1.204;2024-03-08T00:55:39;34.20;;;14.33;;
19406;SDS011;9839;53.364;-1.204;2024-03-08T00:58:04;35.33;;;14.37;;
19406;SDS011;9839;53.364;-1.204;2024-03-08T01:00:30;32.87;;;14.07;;
19406;SDS011;9839;53.364;-1.204;2024-03-08T01:02:55;34.90;;;14.60;;
19406;SDS011;9839;53.364;-1.204;2024-03-08T01:05:21;38.97;;;16.50;;
19406;SDS011;9839;53.364;-1.204;2024-03-08T01:07:48;36.87;;;14.57;;
19406;SDS011;9839;53.364;-1.204;2024-03-08T01:10:14;41.03;;;14.57;;
19406;SDS011;9839;53.364;-1.204;2024-03-08T01:12:40;43.03;;;14.90;;
19406;SDS011;9839;53.364;-1.204;2024-03-08T01:15:08;39.27;;;14.70;;
19406;SDS011;9839;53.364;-1.204;2024-03-08T01:17:35;40.53;;;15.30;;
19406;SDS011;9839;53.364;-1.204;2024-03-08T01:20:01;38.80;;;16.13;;
19406;SDS011;9839;53.364;-1.204;2024-03-08T01:22:27;41.13;;;16.30;;
19406;SDS011;9839;53.364;-1.204;2024-03-08T01:24:54;41.23;;;16.27;;
19406;SDS011;9839;53.364;-1.204;2024-03-08T01:27:20;41.80;;;16.33;;
19406;SDS011;9839;53.364;-1.204;2024-03-08T01:29:45;33.10;;;13.80;;
19406;SDS011;9839;53.364;-1.204;2024-03-08T01:32:11;33.60;;;13.90;;
19406;SDS011;9839;53.364;-1.204;2024-03-08T01:34:37;38.67;;;16.00;;
19406;SDS011;9839;53.364;-1.204;2024-03-08T01:37:02;44.53;;;16.10;;
19406;SDS011;9839;53.364;-1.204;2024-03-08T01:39:27;42.87;;;15.27;;
19406;SDS011;9839;53.364;-1.204;2024-03-08T01:41:53;32.97;;;14.03;;
19406;SDS011;9839;53.364;-1.204;2024-03-08T01:44:19;33.03;;;13.70;;
19406;SDS011;9839;53.364;-1.204;2024-03-08T01:46:44;35.23;;;15.00;;
19406;SDS011;9839;53.364;-1.204;2024-03-08T01:49:10;42.50;;;15.37;;
19406;SDS011;9839;53.364;-1.204;2024-03-08T01:51:36;37.70;;;14.33;;
19406;SDS011;9839;53.364;-1.204;2024-03-08T01:54:02;35.63;;;14.37;;
19406;SDS011;9839;53.364;-1.204;2024-03-08T01:56:28;41.90;;;13.70;;
19406;SDS011;9839;53.364;-1.204;2024-03-08T01:58:56;39.70;;;14.07;;
19406;SDS011;9839;53.364;-1.204;2024-03-08T02:01:22;33.00;;;13.73;;
19406;SDS011;9839;53.364;-1.204;2024-03-08T02:03:49;31.23;;;13.33;;
19406;SDS011;9839;53.364;-1.204;2024-03-08T02:06:14;37.10;;;13.83;;
19406;SDS011;9839;53.364;-1.204;2024-03-08T02:08:44;36.53;;;13.40;;
19406;SDS011;9839;53.364;-1.204;2024-03-08T02:11:10;33.20;;;14.00;;
19406;SDS011;9839;53.364;-1.204;2024-03-08T02:13:36;29.97;;;13.67;;
19406;SDS011;9839;53.364;-1.204;2024-03-08T02:16:01;31.23;;;13.13;;
19406;SDS011;9839;53.364;-1.204;2024-03-08T02:18:28;34.87;;;13.70;;
19406;SDS011;9839;53.364;-1.204;2024-03-08T02:20:58;32.47;;;13.27;;
19406;SDS011;9839;53.364;-1.204;2024-03-08T02:23:24;35.47;;;13.50;;
19406;SDS011;9839;53.364;-1.204;2024-03-08T02:25:50;33.50;;;13.73;;
19406;SDS011;9839;53.364;-1.204;2024-03-08T02:28:16;30.43;;;12.97;;
19406;SDS011;9839;53.364;-1.204;2024-03-08T02:30:43;38.33;;;13.27;;
19406;SDS011;9839;53.364;-1.204;2024-03-08T02:33:09;38.40;;;14.10;;
19406;SDS011;9839;53.364;-1.204;2024-03-08T02:35:35;35.53;;;13.77;;
19406;SDS011;9839;53.364;-1.204;2024-03-08T02:38:01;36.80;;;12.17;;
19406;SDS011;9839;53.364;-1.204;2024-03-08T02:40:28;38.23;;;13.93;;
19406;SDS011;9839;53.364;-1.204;2024-03-08T02:42:54;35.87;;;13.57;;
19406;SDS011;9839;53.364;-1.204;2024-03-08T02:45:19;39.93;;;14.07;;
19406;SDS011;9839;53.364;-1.204;2024-03-08T02:47:45;38.07;;;13.80;;
19406;SDS011;9839;53.364;-1.204;2024-03-08T02:50:11;40.27;;;14.87;;
19406;SDS011;9839;53.364;-1.204;2024-03-08T02:52:36;38.83;;;14.07;;
19406;SDS011;9839;53.364;-1.204;2024-03-08T02:55:02;35.13;;;14.80;;
19406;SDS011;9839;53.364;-1.204;2024-03-08T02:57:28;40.67;;;14.13;;
19406;SDS011;9839;53.364;-1.204;2024-03-08T02:59:53;41.17;;;15.07;;
19406;SDS011;9839;53.364;-1.204;2024-03-08T03:02:19;36.67;;;14.80;;
19406;SDS011;9839;53.364;-1.204;2024-03-08T03:04:44;39.90;;;14.73;;
19406;SDS011;9839;53.364;-1.204;2024-03-08T03:07:09;43.30;;;15.53;;
19406;SDS011;9839;53.364;-1.204;2024-03-08T03:09:36;40.27;;;14.53;;
19406;SDS011;9839;53.364;-1.204;2024-03-08T03:12:01;40.03;;;15.67;;
19406;SDS011;9839;53.364;-1.204;2024-03-08T03:14:27;42.07;;;15.43;;
19406;SDS011;9839;53.364;-1.204;2024-03-08T03:16:53;36.53;;;14.63;;
19406;SDS011;9839;53.364;-1.204;2024-03-08T03:19:19;38.70;;;14.83;;
19406;SDS011;9839;53.364;-1.204;2024-03-08T03:21:45;45.87;;;15.67;;
19406;SDS011;9839;53.364;-1.204;2024-03-08T03:24:10;43.50;;;15.43;;
19406;SDS011;9839;53.364;-1.204;2024-03-08T03:26:37;41.03;;;15.60;;
19406;SDS011;9839;53.364;-1.204;2024-03-08T03:29:06;39.20;;;14.87;;
19406;SDS011;9839;53.364;-1.204;2024-03-08T03:31:33;42.77;;;15.93;;
19406;SDS011;9839;53.364;-1.204;2024-03-08T03:33:59;42.57;;;16.27;;
19406;SDS011;9839;53.364;-1.204;2024-03-08T03:36:27;37.43;;;14.90;;
19406;SDS011;9839;53.364;-1.204;2024-03-08T03:38:53;40.77;;;16.20;;
19406;SDS011;9839;53.364;-1.204;2024-03-08T03:41:29;39.63;;;15.13;;
19406;SDS011;9839;53.364;-1.204;2024-03-08T03:43:55;47.87;;;17.17;;
19406;SDS011;9839;53.364;-1.204;2024-03-08T03:46:20;43.50;;;15.00;;
19406;SDS011;9839;53.364;-1.204;2024-03-08T03:48:46;41.13;;;16.33;;
19406;SDS011;9839;53.364;-1.204;2024-03-08T03:51:11;44.87;;;16.57;;
19406;SDS011;9839;53.364;-1.204;2024-03-08T03:53:37;41.83;;;16.50;;
19406;SDS011;9839;53.364;-1.204;2024-03-08T03:56:02;41.93;;;15.93;;
19406;SDS011;9839;53.364;-1.204;2024-03-08T03:58:32;42.27;;;15.23;;
19406;SDS011;9839;53.364;-1.204;2024-03-08T04:00:57;38.53;;;15.57;;
19406;SDS011;9839;53.364;-1.204;2024-03-08T04:03:23;41.30;;;15.37;;
19406;SDS011;9839;53.364;-1.204;2024-03-08T04:05:48;45.27;;;15.53;;
19406;SDS011;9839;53.364;-1.204;2024-03-08T04:08:14;43.63;;;16.13;;
19406;SDS011;9839;53.364;-1.204;2024-03-08T04:10:39;45.10;;;15.80;;
19406;SDS011;9839;53.364;-1.204;2024-03-08T04:13:06;44.67;;;15.63;;
19406;SDS011;9839;53.364;-1.204;2024-03-08T04:15:32;41.57;;;15.23;;
19406;SDS011;9839;53.364;-1.204;2024-03-08T04:17:57;50.70;;;17.00;;
19406;SDS011;9839;53.364;-1.204;2024-03-08T04:20:25;42.83;;;16.50;;
19406;SDS011;9839;53.364;-1.204;2024-03-08T04:22:50;46.77;;;17.13;;
19406;SDS011;9839;53.364;-1.204;2024-03-08T04:25:16;38.83;;;15.90;;
19406;SDS011;9839;53.364;-1.204;2024-03-08T04:27:41;45.07;;;17.00;;
19406;SDS011;9839;53.364;-1.204;2024-03-08T04:30:07;42.60;;;16.60;;
19406;SDS011;9839;53.364;-1.204;2024-03-08T04:32:33;49.33;;;17.67;;
19406;SDS011;9839;53.364;-1.204;2024-03-08T04:34:58;41.07;;;15.53;;
19406;SDS011;9839;53.364;-1.204;2024-03-08T04:37:26;43.53;;;17.20;;
19406;SDS011;9839;53.364;-1.204;2024-03-08T04:39:51;43.70;;;16.80;;
19406;SDS011;9839;53.364;-1.204;2024-03-08T04:42:17;44.57;;;17.27;;
19406;SDS011;9839;53.364;-1.204;2024-03-08T04:44:43;45.30;;;16.80;;
19406;SDS011;9839;53.364;-1.204;2024-03-08T04:47:08;46.23;;;18.33;;
19406;SDS011;9839;53.364;-1.204;2024-03-08T04:49:35;50.97;;;17.30;;
19406;SDS011;9839;53.364;-1.204;2024-03-08T04:52:03;50.37;;;16.87;;
19406;SDS011;9839;53.364;-1.204;2024-03-08T04:54:32;45.77;;;17.53;;
19406;SDS011;9839;53.364;-1.204;2024-03-08T04:56:58;44.57;;;17.17;;
19406;SDS011;9839;53.364;-1.204;2024-03-08T04:59:25;49.00;;;18.00;;
19406;SDS011;9839;53.364;-1.204;2024-03-08T05:01:51;50.37;;;18.23;;
19406;SDS011;9839;53.364;-1.204;2024-03-08T05:04:16;45.23;;;18.43;;
19406;SDS011;9839;53.364;-1.204;2024-03-08T05:06:41;38.17;;;16.20;;
19406;SDS011;9839;53.364;-1.204;2024-03-08T05:09:07;49.30;;;18.87;;
19406;SDS011;9839;53.364;-1.204;2024-03-08T05:11:39;42.43;;;17.33;;
19406;SDS011;9839;53.364;-1.204;2024-03-08T05:14:05;41.20;;;17.50;;
19406;SDS011;9839;53.364;-1.204;2024-03-08T05:16:30;50.97;;;18.87;;
19406;SDS011;9839;53.364;-1.204;2024-03-08T05:18:56;40.63;;;17.03;;
19406;SDS011;9839;53.364;-1.204;2024-03-08T05:21:22;45.23;;;19.07;;
19406;SDS011;9839;53.364;-1.204;2024-03-08T05:23:48;45.50;;;17.87;;
19406;SDS011;9839;53.364;-1.204;2024-03-08T05:26:15;43.97;;;17.43;;
19406;SDS011;9839;53.364;-1.204;2024-03-08T05:28:40;47.30;;;17.37;;
19406;SDS011;9839;53.364;-1.204;2024-03-08T05:31:06;41.67;;;17.43;;
19406;SDS011;9839;53.364;-1.204;2024-03-08T05:33:31;48.43;;;17.93;;
19406;SDS011;9839;53.364;-1.204;2024-03-08T05:35:59;46.80;;;18.63;;
19406;SDS011;9839;53.364;-1.204;2024-03-08T05:38:25;50.03;;;17.60;;
19406;SDS011;9839;53.364;-1.204;2024-03-08T05:40:51;50.00;;;18.13;;
19406;SDS011;9839;53.364;-1.204;2024-03-08T05:43:16;43.90;;;18.33;;
19406;SDS011;9839;53.364;-1.204;2024-03-08T05:45:44;41.80;;;17.17;;
19406;SDS011;9839;53.364;-1.204;2024-03-08T05:48:10;47.87;;;18.87;;
19406;SDS011;9839;53.364;-1.204;2024-03-08T05:50:37;51.30;;;18.37;;
19406;SDS011;9839;53.364;-1.204;2024-03-08T05:53:03;43.83;;;18.47;;
19406;SDS011;9839;53.364;-1.204;2024-03-08T05:55:31;55.37;;;18.43;;
19406;SDS011;9839;53.364;-1.204;2024-03-08T05:58:00;48.13;;;18.53;;
19406;SDS011;9839;53.364;-1.204;2024-03-08T06:00:28;42.77;;;18.63;;
19406;SDS011;9839;53.364;-1.204;2024-03-08T06:02:53;43.77;;;17.10;;
19406;SDS011;9839;53.364;-1.204;2024-03-08T06:05:20;47.90;;;18.97;;
19406;SDS011;9839;53.364;-1.204;2024-03-08T06:07:48;43.60;;;20.00;;
19406;SDS011;9839;53.364;-1.204;2024-03-08T06:10:13;45.00;;;17.60;;
19406;SDS011;9839;53.364;-1.204;2024-03-08T06:12:39;50.73;;;18.60;;
19406;SDS011;9839;53.364;-1.204;2024-03-08T06:15:09;54.27;;;18.53;;
19406;SDS011;9839;53.364;-1.204;2024-03-08T06:17:35;48.03;;;19.40;;
19406;SDS011;9839;53.364;-1.204;2024-03-08T06:20:01;53.23;;;19.47;;
19406;SDS011;9839;53.364;-1.204;2024-03-08T06:22:27;47.83;;;19.00;;
19406;SDS011;9839;53.364;-1.204;2024-03-08T06:24:53;43.50;;;18.13;;
19406;SDS011;9839;53.364;-1.204;2024-03-08T06:27:19;45.03;;;17.17;;
19406;SDS011;9839;53.364;-1.204;2024-03-08T06:29:44;45.40;;;18.87;;
19406;SDS011;9839;53.364;-1.204;2024-03-08T06:32:10;49.20;;;19.10;;
19406;SDS011;9839;53.364;-1.204;2024-03-08T06:34:35;49.23;;;19.07;;
19406;SDS011;9839;53.364;-1.204;2024-03-08T06:37:01;49.97;;;19.07;;
19406;SDS011;9839;53.364;-1.204;2024-03-08T06:39:26;50.23;;;18.37;;
19406;SDS011;9839;53.364;-1.204;2024-03-08T06:41:53;58.33;;;21.30;;
19406;SDS011;9839;53.364;-1.204;2024-03-08T06:44:19;54.83;;;19.20;;
19406;SDS011;9839;53.364;-1.204;2024-03-08T06:46:46;42.20;;;18.00;;
19406;SDS011;9839;53.364;-1.204;2024-03-08T06:49:13;50.13;;;18.77;;
19406;SDS011;9839;53.364;-1.204;2024-03-08T06:51:38;46.87;;;19.23;;
19406;SDS011;9839;53.364;-1.204;2024-03-08T06:54:06;49.17;;;19.57;;
19406;SDS011;9839;53.364;-1.204;2024-03-08T06:56:33;49.37;;;20.17;;
19406;SDS011;9839;53.364;-1.204;2024-03-08T06:58:59;51.60;;;19.73;;
19406;SDS011;9839;53.364;-1.204;2024-03-08T07:01:24;51.17;;;18.97;;
19406;SDS011;9839;53.364;-1.204;2024-03-08T07:03:50;51.43;;;20.43;;
19406;SDS011;9839;53.364;-1.204;2024-03-08T07:06:17;50.97;;;18.60;;
19406;SDS011;9839;53.364;-1.204;2024-03-08T07:08:44;51.60;;;19.83;;
19406;SDS011;9839;53.364;-1.204;2024-03-08T07:11:11;46.17;;;19.57;;
19406;SDS011;9839;53.364;-1.204;2024-03-08T07:13:37;51.90;;;19.80;;
19406;SDS011;9839;53.364;-1.204;2024-03-08T07:16:04;56.23;;;20.67;;
19406;SDS011;9839;53.364;-1.204;2024-03-08T07:18:30;50.13;;;20.97;;
19406;SDS011;9839;53.364;-1.204;2024-03-08T07:20:56;55.67;;;20.33;;
19406;SDS011;9839;53.364;-1.204;2024-03-08T07:23:21;51.63;;;19.40;;
19406;SDS011;9839;53.364;-1.204;2024-03-08T07:26:05;49.23;;;19.83;;
19406;SDS011;9839;53.364;-1.204;2024-03-08T07:28:31;55.70;;;19.27;;
19406;SDS011;9839;53.364;-1.204;2024-03-08T07:30:57;50.70;;;20.97;;
19406;SDS011;9839;53.364;-1.204;2024-03-08T07:33:41;51.57;;;20.23;;
19406;SDS011;9839;53.364;-1.204;2024-03-08T07:36:07;47.83;;;19.77;;
19406;SDS011;9839;53.364;-1.204;2024-03-08T07:38:33;52.67;;;20.10;;
19406;SDS011;9839;53.364;-1.204;2024-03-08T07:40:58;54.63;;;20.03;;
19406;SDS011;9839;53.364;-1.204;2024-03-08T07:43:25;53.63;;;19.40;;
19406;SDS011;9839;53.364;-1.204;2024-03-08T07:45:51;52.30;;;19.93;;
19406;SDS011;9839;53.364;-1.204;2024-03-08T07:48:18;56.67;;;21.07;;
19406;SDS011;9839;53.364;-1.204;2024-03-08T07:50:43;52.50;;;19.87;;
19406;SDS011;9839;53.364;-1.204;2024-03-08T07:53:08;51.10;;;19.80;;
19406;SDS011;9839;53.364;-1.204;2024-03-08T07:55:34;51.40;;;19.63;;
19406;SDS011;9839;53.364;-1.204;2024-03-08T07:58:00;41.73;;;18.13;;
19406;SDS011;9839;53.364;-1.204;2024-03-08T08:00:26;43.80;;;19.43;;
19406;SDS011;9839;53.364;-1.204;2024-03-08T08:02:52;46.00;;;18.93;;
19406;SDS011;9839;53.364;-1.204;2024-03-08T08:05:21;46.63;;;18.10;;
19406;SDS011;9839;53.364;-1.204;2024-03-08T08:07:46;43.83;;;18.87;;
19406;SDS011;9839;53.364;-1.204;2024-03-08T08:10:14;49.17;;;17.90;;
19406;SDS011;9839;53.364;-1.204;2024-03-08T08:12:46;51.90;;;19.03;;
19406;SDS011;9839;53.364;-1.204;2024-03-08T08:15:15;54.97;;;19.03;;
19406;SDS011;9839;53.364;-1.204;2024-03-08T08:17:44;56.20;;;18.90;;
19406;SDS011;9839;53.364;-1.204;2024-03-08T08:20:10;45.17;;;18.57;;
19406;SDS011;9839;53.364;-1.204;2024-03-08T08:22:37;43.40;;;18.63;;
19406;SDS011;9839;53.364;-1.204;2024-03-08T08:25:04;52.27;;;18.80;;
19406;SDS011;9839;53.364;-1.204;2024-03-08T08:27:29;45.03;;;18.40;;
19406;SDS011;9839;53.364;-1.204;2024-03-08T08:29:55;47.27;;;18.47;;
19406;SDS011;9839;53.364;-1.204;2024-03-08T08:32:21;45.97;;;18.23;;
19406;SDS011;9839;53.364;-1.204;2024-03-08T08:34:46;42.70;;;17.67;;
19406;SDS011;9839;53.364;-1.204;2024-03-08T08:37:12;42.80;;;17.93;;
19406;SDS011;9839;53.364;-1.204;2024-03-08T08:39:37;42.07;;;16.87;;
19406;SDS011;9839;53.364;-1.204;2024-03-08T08:42:03;41.20;;;17.37;;
19406;SDS011;9839;53.364;-1.204;2024-03-08T08:44:29;51.87;;;16.93;;
19406;SDS011;9839;53.364;-1.204;2024-03-08T08:46:56;42.93;;;16.53;;
19406;SDS011;9839;53.364;-1.204;2024-03-08T08:49:22;40.30;;;17.00;;
19406;SDS011;9839;53.364;-1.204;2024-03-08T08:51:52;39.67;;;15.93;;
19406;SDS011;9839;53.364;-1.204;2024-03-08T08:54:18;40.20;;;16.10;;
19406;SDS011;9839;53.364;-1.204;2024-03-08T08:56:43;39.00;;;15.80;;
19406;SDS011;9839;53.364;-1.204;2024-03-08T08:59:09;34.80;;;15.70;;
19406;SDS011;9839;53.364;-1.204;2024-03-08T09:01:35;38.77;;;16.00;;
19406;SDS011;9839;53.364;-1.204;2024-03-08T09:04:00;38.37;;;16.10;;
19406;SDS011;9839;53.364;-1.204;2024-03-08T09:06:25;38.50;;;15.67;;
19406;SDS011;9839;53.364;-1.204;2024-03-08T09:08:51;40.73;;;16.10;;
19406;SDS011;9839;53.364;-1.204;2024-03-08T09:11:17;31.10;;;14.57;;
19406;SDS011;9839;53.364;-1.204;2024-03-08T09:13:46;42.40;;;16.30;;
19406;SDS011;9839;53.364;-1.204;2024-03-08T09:16:12;31.60;;;14.60;;
19406;SDS011;9839;53.364;-1.204;2024-03-08T09:18:37;40.87;;;14.83;;
19406;SDS011;9839;53.364;-1.204;2024-03-08T09:21:02;35.70;;;14.57;;
19406;SDS011;9839;53.364;-1.204;2024-03-08T09:23:30;36.27;;;15.13;;
19406;SDS011;9839;53.364;-1.204;2024-03-08T09:25:58;38.83;;;14.43;;
19406;SDS011;9839;53.364;-1.204;2024-03-08T09:28:24;37.03;;;15.90;;
19406;SDS011;9839;53.364;-1.204;2024-03-08T09:30:51;38.50;;;14.77;;
19406;SDS011;9839;53.364;-1.204;2024-03-08T09:33:16;40.80;;;15.33;;
19406;SDS011;9839;53.364;-1.204;2024-03-08T09:35:45;32.23;;;14.70;;
19406;SDS011;9839;53.364;-1.204;2024-03-08T09:38:12;34.50;;;15.27;;
19406;SDS011;9839;53.364;-1.204;2024-03-08T09:40:38;33.73;;;15.27;;
19406;SDS011;9839;53.364;-1.204;2024-03-08T09:43:06;41.07;;;15.80;;
19406;SDS011;9839;53.364;-1.204;2024-03-08T09:45:34;34.10;;;15.03;;
19406;SDS011;9839;53.364;-1.204;2024-03-08T09:48:01;24.30;;;13.37;;
19406;SDS011;9839;53.364;-1.204;2024-03-08T09:50:26;34.47;;;14.47;;
19406;SDS011;9839;53.364;-1.204;2024-03-08T09:52:54;29.03;;;14.07;;
19406;SDS011;9839;53.364;-1.204;2024-03-08T09:55:22;34.53;;;13.97;;
19406;SDS011;9839;53.364;-1.204;2024-03-08T09:57:47;35.70;;;13.90;;
19406;SDS011;9839;53.364;-1.204;2024-03-08T10:00:33;31.47;;;13.23;;
19406;SDS011;9839;53.364;-1.204;2024-03-08T10:03:01;33.77;;;14.73;;
19406;SDS011;9839;53.364;-1.204;2024-03-08T10:05:27;31.33;;;13.97;;
19406;SDS011;9839;53.364;-1.204;2024-03-08T10:07:53;30.33;;;13.90;;
19406;SDS011;9839;53.364;-1.204;2024-03-08T10:10:18;33.33;;;13.53;;
19406;SDS011;9839;53.364;-1.204;2024-03-08T10:12:44;31.80;;;12.93;;
19406;SDS011;9839;53.364;-1.204;2024-03-08T10:15:10;31.70;;;14.37;;
19406;SDS011;9839;53.364;-1.204;2024-03-08T10:17:37;29.13;;;13.70;;
19406;SDS011;9839;53.364;-1.204;2024-03-08T10:20:13;34.97;;;14.20;;
19406;SDS011;9839;53.364;-1.204;2024-03-08T10:22:40;30.60;;;13.37;;
19406;SDS011;9839;53.364;-1.204;2024-03-08T10:25:08;30.77;;;14.07;;
19406;SDS011;9839;53.364;-1.204;2024-03-08T10:27:35;30.43;;;13.53;;
19406;SDS011;9839;53.364;-1.204;2024-03-08T10:30:01;29.40;;;14.37;;
19406;SDS011;9839;53.364;-1.204;2024-03-08T10:32:26;32.83;;;14.57;;
19406;SDS011;9839;53.364;-1.204;2024-03-08T10:34:52;29.13;;;13.83;;
19406;SDS011;9839;53.364;-1.204;2024-03-08T10:37:19;35.27;;;13.53;;
19406;SDS011;9839;53.364;-1.204;2024-03-08T10:39:52;39.73;;;15.13;;
19406;SDS011;9839;53.364;-1.204;2024-03-08T10:42:35;41.33;;;13.53;;
19406;SDS011;9839;53.364;-1.204;2024-03-08T10:45:07;31.97;;;13.93;;
19406;SDS011;9839;53.364;-1.204;2024-03-08T10:47:40;33.87;;;14.17;;
19406;SDS011;9839;53.364;-1.204;2024-03-08T10:50:18;32.70;;;13.70;;
19406;SDS011;9839;53.364;-1.204;2024-03-08T10:52:50;28.07;;;13.03;;
19406;SDS011;9839;53.364;-1.204;2024-03-08T10:55:17;27.13;;;13.93;;
19406;SDS011;9839;53.364;-1.204;2024-03-08T10:57:45;31.63;;;14.17;;
19406;SDS011;9839;53.364;-1.204;2024-03-08T11:00:11;35.20;;;14.43;;
19406;SDS011;9839;53.364;-1.204;2024-03-08T11:02:37;28.57;;;13.20;;
19406;SDS011;9839;53.364;-1.204;2024-03-08T11:05:03;33.53;;;14.97;;
19406;SDS011;9839;53.364;-1.204;2024-03-08T11:07:33;33.63;;;14.33;;
19406;SDS011;9839;53.364;-1.204;2024-03-08T11:10:01;31.97;;;15.57;;
19406;SDS011;9839;53.364;-1.204;2024-03-08T11:12:35;35.70;;;15.67;;
19406;SDS011;9839;53.364;-1.204;2024-03-08T11:15:03;35.63;;;14.40;;
19406;SDS011;9839;53.364;-1.204;2024-03-08T11:20:13;33.10;;;15.10;;
19406;SDS011;9839;53.364;-1.204;2024-03-08T11:23:17;31.97;;;14.00;;
19406;SDS011;9839;53.364;-1.204;2024-03-08T11:25:43;28.00;;;13.87;;
19406;SDS011;9839;53.364;-1.204;2024-03-08T11:28:18;26.43;;;14.10;;
19406;SDS011;9839;53.364;-1.204;2024-03-08T11:33:24;32.57;;;14.93;;
19406;SDS011;9839;53.364;-1.204;2024-03-08T11:35:52;29.57;;;14.10;;
19406;SDS011;9839;53.364;-1.204;2024-03-08T11:38:17;31.87;;;14.40;;
19406;SDS011;9839;53.364;-1.204;2024-03-08T11:40:46;31.80;;;13.80;;
19406;SDS011;9839;53.364;-1.204;2024-03-08T11:43:15;33.23;;;13.30;;
19406;SDS011;9839;53.364;-1.204;2024-03-08T11:45:41;29.87;;;13.87;;
19406;SDS011;9839;53.364;-1.204;2024-03-08T11:48:06;32.17;;;13.60;;
19406;SDS011;9839;53.364;-1.204;2024-03-08T11:50:32;25.17;;;13.30;;
19406;SDS011;9839;53.364;-1.204;2024-03-08T11:53:01;32.07;;;13.17;;
19406;SDS011;9839;53.364;-1.204;2024-03-08T11:55:28;28.93;;;13.43;;
19406;SDS011;9839;53.364;-1.204;2024-03-08T11:58:04;25.93;;;12.10;;
19406;SDS011;9839;53.364;-1.204;2024-03-08T12:00:33;28.87;;;13.90;;
19406;SDS011;9839;53.364;-1.204;2024-03-08T12:03:06;25.13;;;12.43;;
19406;SDS011;9839;53.364;-1.204;2024-03-08T12:05:32;28.20;;;13.00;;
19406;SDS011;9839;53.364;-1.204;2024-03-08T12:07:58;26.13;;;12.00;;
19406;SDS011;9839;53.364;-1.204;2024-03-08T12:10:24;34.03;;;17.20;;
19406;SDS011;9839;53.364;-1.204;2024-03-08T12:12:53;24.93;;;13.37;;
19406;SDS011;9839;53.364;-1.204;2024-03-08T12:15:20;24.67;;;13.70;;
19406;SDS011;9839;53.364;-1.204;2024-03-08T12:17:48;31.70;;;13.63;;
19406;SDS011;9839;53.364;-1.204;2024-03-08T12:20:25;27.43;;;13.63;;
19406;SDS011;9839;53.364;-1.204;2024-03-08T12:22:54;25.30;;;13.33;;
19406;SDS011;9839;53.364;-1.204;2024-03-08T12:25:22;32.43;;;14.30;;
19406;SDS011;9839;53.364;-1.204;2024-03-08T12:27:51;30.33;;;13.57;;
19406;SDS011;9839;53.364;-1.204;2024-03-08T12:32:52;26.87;;;13.03;;
19406;SDS011;9839;53.364;-1.204;2024-03-08T12:35:20;31.40;;;13.77;;
19406;SDS011;9839;53.364;-1.204;2024-03-08T12:37:47;29.73;;;14.27;;
19406;SDS011;9839;53.364;-1.204;2024-03-08T12:40:14;28.53;;;13.60;;
19406;SDS011;9839;53.364;-1.204;2024-03-08T12:42:42;34.33;;;14.03;;
19406;SDS011;9839;53.364;-1.204;2024-03-08T12:45:08;27.70;;;14.33;;
19406;SDS011;9839;53.364;-1.204;2024-03-08T12:47:35;32.73;;;13.50;;
19406;SDS011;9839;53.364;-1.204;2024-03-08T12:50:01;28.63;;;14.30;;
19406;SDS011;9839;53.364;-1.204;2024-03-08T12:52:26;26.60;;;13.37;;
19406;SDS011;9839;53.364;-1.204;2024-03-08T12:54:52;29.97;;;14.03;;
19406;SDS011;9839;53.364;-1.204;2024-03-08T12:57:17;33.60;;;13.47;;
19406;SDS011;9839;53.364;-1.204;2024-03-08T12:59:42;32.03;;;13.87;;
19406;SDS011;9839;53.364;-1.204;2024-03-08T13:02:08;27.17;;;13.53;;
19406;SDS011;9839;53.364;-1.204;2024-03-08T13:04:36;26.40;;;14.00;;
19406;SDS011;9839;53.364;-1.204;2024-03-08T13:07:01;32.37;;;14.20;;
19406;SDS011;9839;53.364;-1.204;2024-03-08T13:09:27;28.37;;;13.43;;
19406;SDS011;9839;53.364;-1.204;2024-03-08T13:11:52;30.90;;;13.90;;
19406;SDS011;9839;53.364;-1.204;2024-03-08T13:14:20;27.83;;;13.43;;
19406;SDS011;9839;53.364;-1.204;2024-03-08T13:16:45;29.70;;;13.67;;
19406;SDS011;9839;53.364;-1.204;2024-03-08T13:19:13;26.33;;;13.37;;
19406;SDS011;9839;53.364;-1.204;2024-03-08T13:21:38;29.90;;;14.53;;
19406;SDS011;9839;53.364;-1.204;2024-03-08T13:24:04;26.47;;;14.03;;
19406;SDS011;9839;53.364;-1.204;2024-03-08T13:26:29;29.87;;;13.93;;
19406;SDS011;9839;53.364;-1.204;2024-03-08T13:28:57;30.40;;;14.93;;
19406;SDS011;9839;53.364;-1.204;2024-03-08T13:31:23;31.10;;;14.60;;
19406;SDS011;9839;53.364;-1.204;2024-03-08T13:33:49;30.70;;;14.47;;
19406;SDS011;9839;53.364;-1.204;2024-03-08T13:36:16;31.07;;;14.63;;
19406;SDS011;9839;53.364;-1.204;2024-03-08T13:38:46;31.37;;;14.60;;
19406;SDS011;9839;53.364;-1.204;2024-03-08T13:41:12;31.47;;;13.23;;
19406;SDS011;9839;53.364;-1.204;2024-03-08T13:43:43;32.13;;;14.20;;
19406;SDS011;9839;53.364;-1.204;2024-03-08T13:46:09;26.90;;;13.73;;
19406;SDS011;9839;53.364;-1.204;2024-03-08T13:48:35;35.00;;;14.33;;
19406;SDS011;9839;53.364;-1.204;2024-03-08T13:51:02;30.70;;;14.47;;
19406;SDS011;9839;53.364;-1.204;2024-03-08T13:53:29;25.17;;;13.43;;
19406;SDS011;9839;53.364;-1.204;2024-03-08T13:55:55;31.87;;;13.07;;
19406;SDS011;9839;53.364;-1.204;2024-03-08T13:58:21;28.70;;;13.83;;
19406;SDS011;9839;53.364;-1.204;2024-03-08T14:00:47;26.20;;;13.07;;
19406;SDS011;9839;53.364;-1.204;2024-03-08T14:03:13;31.03;;;13.53;;
19406;SDS011;9839;53.364;-1.204;2024-03-08T14:05:39;33.07;;;14.30;;
19406;SDS011;9839;53.364;-1.204;2024-03-08T14:08:05;30.33;;;14.57;;
19406;SDS011;9839;53.364;-1.204;2024-03-08T14:10:32;31.50;;;14.30;;
19406;SDS011;9839;53.364;-1.204;2024-03-08T14:12:59;28.00;;;12.93;;
19406;SDS011;9839;53.364;-1.204;2024-03-08T14:15:25;31.57;;;14.93;;
19406;SDS011;9839;53.364;-1.204;2024-03-08T14:17:53;32.57;;;13.97;;
19406;SDS011;9839;53.364;-1.204;2024-03-08T14:20:19;31.07;;;14.07;;
19406;SDS011;9839;53.364;-1.204;2024-03-08T14:22:44;30.20;;;14.93;;
19406;SDS011;9839;53.364;-1.204;2024-03-08T14:25:11;28.70;;;14.47;;
19406;SDS011;9839;53.364;-1.204;2024-03-08T14:27:42;31.50;;;14.93;;